sensor_id;sensor_type;location;lat;lon;timestamp;P1;P2;P0
57798;PMS7003;43626;53.866;30.298;2022-10-22T06:54:07;0;0;0
57798;PMS7003;43626;53.866;30.298;2022-10-22T06:59:09;16.8;14.4;10
57798;PMS7003;43626;53.866;30.298;2022-10-22T07:04:08;17.8;15.8;10.6
57798;PMS7003;43626;53.866;30.298;2022-10-22T07:08:51;19;18;11.3
57798;PMS7003;43626;53.866;30.298;2022-10-22T07:13:45;21.2;18.2;12.2
57798;PMS7003;43626;53.866;30.298;2022-10-22T07:18:55;28.8;26;16.8
57798;PMS7003;43626;53.866;30.298;2022-10-22T07:24:31;24.6;21.2;15
57798;PMS7003;43626;53.866;30.298;2022-10-22T07:29:17;24.8;21.4;15.2
57798;PMS7003;43626;53.866;30.298;2022-10-22T07:34:05;23.8;21.6;14.2
57798;PMS7003;43626;53.866;30.298;2022-10-22T07:39:31;23.6;20.4;14.4
57798;PMS7003;43626;53.866;30.298;2022-10-22T07:44:19;23.4;20;13.8
57798;PMS7003;43626;53.866;30.298;2022-10-22T07:49:29;24.8;22;13.8
57798;PMS7003;43626;53.866;30.298;2022-10-22T07:53:59;23;20.8;14.6
57798;PMS7003;43626;53.866;30.298;2022-10-22T07:58:45;25.6;21;14.4
57798;PMS7003;43626;53.866;30.298;2022-10-22T08:04:23;23.8;19.6;13.4
57798;PMS7003;43626;53.866;30.298;2022-10-22T08:09:19;27.5;24;15.8
57798;PMS7003;43626;53.866;30.298;2022-10-22T08:14:09;27.4;23.6;15.6
57798;PMS7003;43626;53.866;30.298;2022-10-22T08:19:17;22.6;20.2;13
57798;PMS7003;43626;53.866;30.298;2022-10-22T08:24:17;24.6;20.6;13.4
57798;PMS7003;43626;53.866;30.298;2022-10-22T08:29:09;24;20.2;13.6
57798;PMS7003;43626;53.866;30.298;2022-10-22T08:34:23;23.4;19;12
57798;PMS7003;43626;53.866;30.298;2022-10-22T08:39:31;23.2;19.4;12.6
57798;PMS7003;43626;53.866;30.298;2022-10-22T08:43:50;24.4;20.8;13.6
57798;PMS7003;43626;53.866;30.298;2022-10-22T08:48:53;27.8;25.8;16.2
57798;PMS7003;43626;53.866;30.298;2022-10-22T08:54:24;26.6;24;16.2
57798;PMS7003;43626;53.866;30.298;2022-10-22T08:59:28;32.2;27;17
57798;PMS7003;43626;53.866;30.298;2022-10-22T09:04:25;21.4;17.2;10.6
57798;PMS7003;43626;53.866;30.298;2022-10-22T09:09:09;18.5;16.5;10.5
57798;PMS7003;43626;53.866;30.298;2022-10-22T09:14:29;24.8;18.8;12.2
57798;PMS7003;43626;53.866;30.298;2022-10-22T09:19:31;21;17.8;11.8
57798;PMS7003;43626;53.866;30.298;2022-10-22T09:23:55;20.8;17.4;10.2
57798;PMS7003;43626;53.866;30.298;2022-10-22T09:29:03;22;17.6;10.6
57798;PMS7003;43626;53.866;30.298;2022-10-22T09:33:59;21;17.6;11.6
57798;PMS7003;43626;53.866;30.298;2022-10-22T09:38:51;23.8;18.2;12.2
57798;PMS7003;43626;53.866;30.298;2022-10-22T09:43:45;23.4;18.8;12.8
57798;PMS7003;43626;53.866;30.298;2022-10-22T09:49:10;22.2;20.4;13.2
57798;PMS7003;43626;53.866;30.298;2022-10-22T09:54:36;20.8;19.4;12.4
57798;PMS7003;43626;53.866;30.298;2022-10-22T09:59:30;20.2;17.6;11.2
57798;PMS7003;43626;53.866;30.298;2022-10-22T10:04:01;21.4;19.2;12.6
57798;PMS7003;43626;53.866;30.298;2022-10-22T10:09:25;21.6;18.2;12.2
57798;PMS7003;43626;53.866;30.298;2022-10-22T10:14:31;19.3;16;11
57798;PMS7003;43626;53.866;30.298;2022-10-22T10:19:33;21.8;19.2;11.8
57798;PMS7003;43626;53.866;30.298;2022-10-22T10:23:55;45.4;34.8;20.2
57798;PMS7003;43626;53.866;30.298;2022-10-22T10:29:02;31.4;25.6;16.4
57798;PMS7003;43626;53.866;30.298;2022-10-22T10:34:01;21.2;18.2;11.8
57798;PMS7003;43626;53.866;30.298;2022-10-22T10:39:29;25.4;20.2;14
57798;PMS7003;43626;53.866;30.298;2022-10-22T10:44:00;22.8;20.6;13.8
57798;PMS7003;43626;53.866;30.298;2022-10-22T10:49:18;39.6;33.2;21.6
57798;PMS7003;43626;53.866;30.298;2022-10-22T10:54:20;32.8;27.8;18
57798;PMS7003;43626;53.866;30.298;2022-10-22T10:59:16;28.4;24.8;16
57798;PMS7003;43626;53.866;30.298;2022-10-22T11:03:51;33;28.8;17.6
57798;PMS7003;43626;53.866;30.298;2022-10-22T11:09:21;34.8;30.2;19.4
57798;PMS7003;43626;53.866;30.298;2022-10-22T11:13:47;37.3;31.8;19.8
57798;PMS7003;43626;53.866;30.298;2022-10-22T11:19:00;33.2;28.4;18
57798;PMS7003;43626;53.866;30.298;2022-10-22T11:24:00;29;24.2;15.2
57798;PMS7003;43626;53.866;30.298;2022-10-22T11:29:27;36.2;30.2;19.2
57798;PMS7003;43626;53.866;30.298;2022-10-22T11:34:17;36.6;30;19
57798;PMS7003;43626;53.866;30.298;2022-10-22T11:38:51;34.4;28;18
57798;PMS7003;43626;53.866;30.298;2022-10-22T11:44:09;40;31.8;21.6
57798;PMS7003;43626;53.866;30.298;2022-10-22T11:49:23;35.4;29.4;19.2
57798;PMS7003;43626;53.866;30.298;2022-10-22T11:54:30;31.6;28.2;19.2
57798;PMS7003;43626;53.866;30.298;2022-10-22T11:59:37;31.6;28;19
57798;PMS7003;43626;53.866;30.298;2022-10-22T12:04:16;46.8;36.2;23
57798;PMS7003;43626;53.866;30.298;2022-10-22T12:08:57;45.2;36.6;24.4
57798;PMS7003;43626;53.866;30.298;2022-10-22T12:14:01;42;33.5;21.8
57798;PMS7003;43626;53.866;30.298;2022-10-22T12:19:14;44.8;34.8;21.6
57798;PMS7003;43626;53.866;30.298;2022-10-22T12:24:22;36.8;31.2;20.8
57798;PMS7003;43626;53.866;30.298;2022-10-22T12:29:15;46;37.6;24.4
57798;PMS7003;43626;53.866;30.298;2022-10-22T12:34:29;46.2;36.2;23.4
57798;PMS7003;43626;53.866;30.298;2022-10-22T12:38:45;40.6;33.2;21.8
57798;PMS7003;43626;53.866;30.298;2022-10-22T12:44:29;41.2;33.8;21.8
57798;PMS7003;43626;53.866;30.298;2022-10-22T12:49:39;42.4;34.6;22.6
57798;PMS7003;43626;53.866;30.298;2022-10-22T12:53:46;38;30.4;21
57798;PMS7003;43626;53.866;30.298;2022-10-22T12:58:46;43.4;35.4;23.2
57798;PMS7003;43626;53.866;30.298;2022-10-22T13:04:03;47.4;37.4;23.2
57798;PMS7003;43626;53.866;30.298;2022-10-22T13:09:35;39.8;32.6;21
57798;PMS7003;43626;53.866;30.298;2022-10-22T13:14:25;40.5;33.5;21.8
57798;PMS7003;43626;53.866;30.298;2022-10-22T13:19:35;37.8;32.8;21
57798;PMS7003;43626;53.866;30.298;2022-10-22T13:24:18;42;33.4;21.2
57798;PMS7003;43626;53.866;30.298;2022-10-22T13:29:15;43.6;34;21.4
57798;PMS7003;43626;53.866;30.298;2022-10-22T13:34:11;48.6;38.2;23.6
57798;PMS7003;43626;53.866;30.298;2022-10-22T13:39:22;52.2;39.8;25
57798;PMS7003;43626;53.866;30.298;2022-10-22T13:44:05;53.8;41.8;26.4
57798;PMS7003;43626;53.866;30.298;2022-10-22T13:48:46;46;36.4;22.4
57798;PMS7003;43626;53.866;30.298;2022-10-22T13:54:09;39.6;32.2;21.6
57798;PMS7003;43626;53.866;30.298;2022-10-22T13:59:27;52.4;42.8;28
57798;PMS7003;43626;53.866;30.298;2022-10-22T14:04:09;36.2;31.6;20.4
57798;PMS7003;43626;53.866;30.298;2022-10-22T14:08:45;35.8;30.4;20.6
57798;PMS7003;43626;53.866;30.298;2022-10-22T14:13:45;46.5;36.5;23.3
57798;PMS7003;43626;53.866;30.298;2022-10-22T14:19:17;48.8;38.4;24
57798;PMS7003;43626;53.866;30.298;2022-10-22T14:24:29;53.2;41.6;25.8
57798;PMS7003;43626;53.866;30.298;2022-10-22T14:29:13;50;40.2;25.4
57798;PMS7003;43626;53.866;30.298;2022-10-22T14:33:59;51.8;39.4;25.2
57798;PMS7003;43626;53.866;30.298;2022-10-22T14:38:47;55.8;43.4;26.8
57798;PMS7003;43626;53.866;30.298;2022-10-22T14:43:45;57.4;43;27.2
57798;PMS7003;43626;53.866;30.298;2022-10-22T14:49:01;57.2;43;26.4
57798;PMS7003;43626;53.866;30.298;2022-10-22T14:53:45;52.6;39.8;25.4
57798;PMS7003;43626;53.866;30.298;2022-10-22T14:59:13;46.8;37.2;23.6
57798;PMS7003;43626;53.866;30.298;2022-10-22T15:04:29;42.2;32;20
57798;PMS7003;43626;53.866;30.298;2022-10-22T15:09:05;43.8;34.4;21.2
57798;PMS7003;43626;53.866;30.298;2022-10-22T15:14:29;42.4;34.8;22.8
57798;PMS7003;43626;53.866;30.298;2022-10-22T15:18:55;51;38;25.5
57798;PMS7003;43626;53.866;30.298;2022-10-22T15:24:27;50.8;38.6;24.8
57798;PMS7003;43626;53.866;30.298;2022-10-22T15:28:45;51.2;39.8;24.8
57798;PMS7003;43626;53.866;30.298;2022-10-22T15:33:59;46.6;37.6;24
57798;PMS7003;43626;53.866;30.298;2022-10-22T15:39:15;37;30.2;18
57798;PMS7003;43626;53.866;30.298;2022-10-22T15:44:24;32.2;26.8;17.4
57798;PMS7003;43626;53.866;30.298;2022-10-22T15:48:55;28.8;24.6;16.6
57798;PMS7003;43626;53.866;30.298;2022-10-22T15:54:20;29.2;26.2;15.6
57798;PMS7003;43626;53.866;30.298;2022-10-22T15:59:17;29.6;24;15
57798;PMS7003;43626;53.866;30.298;2022-10-22T16:04:09;31.8;28;16.8
57798;PMS7003;43626;53.866;30.298;2022-10-22T16:09:24;28.4;24.8;15.6
57798;PMS7003;43626;53.866;30.298;2022-10-22T16:14:29;28.2;23.2;14.4
57798;PMS7003;43626;53.866;30.298;2022-10-22T16:19:01;29.5;24.5;14.5
57798;PMS7003;43626;53.866;30.298;2022-10-22T16:23:59;27.4;23.4;15.2
57798;PMS7003;43626;53.866;30.298;2022-10-22T16:29:31;28.8;25.2;15.8
57798;PMS7003;43626;53.866;30.298;2022-10-22T16:34:31;25.8;22.2;14
57798;PMS7003;43626;53.866;30.298;2022-10-22T16:39:29;32;27.2;16.6
57798;PMS7003;43626;53.866;30.298;2022-10-22T16:44:06;33;28;17.8
57798;PMS7003;43626;53.866;30.298;2022-10-22T16:49:31;34.6;27.6;17.4
57798;PMS7003;43626;53.866;30.298;2022-10-22T16:54:31;30;26.6;16.4
57798;PMS7003;43626;53.866;30.298;2022-10-22T16:59:21;40.8;33;20.2
57798;PMS7003;43626;53.866;30.298;2022-10-22T17:04:03;45;35.6;22.6
57798;PMS7003;43626;53.866;30.298;2022-10-22T17:08:45;51.6;40.4;25
57798;PMS7003;43626;53.866;30.298;2022-10-22T17:13:52;50.4;39.6;23
57798;PMS7003;43626;53.866;30.298;2022-10-22T17:19:13;43.3;36.8;22.5
57798;PMS7003;43626;53.866;30.298;2022-10-22T17:23:45;46.4;36;22.8
57798;PMS7003;43626;53.866;30.298;2022-10-22T17:29:29;43;36;22.4
57798;PMS7003;43626;53.866;30.298;2022-10-22T17:34:10;43.6;36.4;22.8
57798;PMS7003;43626;53.866;30.298;2022-10-22T17:39:07;42;34.2;22
57798;PMS7003;43626;53.866;30.298;2022-10-22T17:44:31;37.8;33.8;21.4
57798;PMS7003;43626;53.866;30.298;2022-10-22T17:49:18;43;35.8;23.6
57798;PMS7003;43626;53.866;30.298;2022-10-22T17:54:29;38;31;21.6
57798;PMS7003;43626;53.866;30.298;2022-10-22T17:58:45;36.6;31.8;20.2
57798;PMS7003;43626;53.866;30.298;2022-10-22T18:03:54;42.4;34.4;21.6
57798;PMS7003;43626;53.866;30.298;2022-10-22T18:09:20;41.4;35.8;23
57798;PMS7003;43626;53.866;30.298;2022-10-22T18:14:22;43.2;34;22
57798;PMS7003;43626;53.866;30.298;2022-10-22T18:18:46;42.8;35;22.8
57798;PMS7003;43626;53.866;30.298;2022-10-22T18:24:21;40;33;20.6
57798;PMS7003;43626;53.866;30.298;2022-10-22T18:29:16;43.4;36;23.4
57798;PMS7003;43626;53.866;30.298;2022-10-22T18:34:09;40;34;21.4
57798;PMS7003;43626;53.866;30.298;2022-10-22T18:39:27;41.6;34.4;21.2
57798;PMS7003;43626;53.866;30.298;2022-10-22T18:44:29;37.5;31.3;20
57798;PMS7003;43626;53.866;30.298;2022-10-22T18:48:45;43.2;34.2;21.2
57798;PMS7003;43626;53.866;30.298;2022-10-22T18:53:48;41;33.4;20.6
57798;PMS7003;43626;53.866;30.298;2022-10-22T18:59:31;42;35.4;21.6
57798;PMS7003;43626;53.866;30.298;2022-10-22T19:04:30;46.4;35;21.6
57798;PMS7003;43626;53.866;30.298;2022-10-22T19:09:17;48.4;39.8;24.4
57798;PMS7003;43626;53.866;30.298;2022-10-22T19:13:57;45;36;22.6
57798;PMS7003;43626;53.866;30.298;2022-10-22T19:19:31;46.6;37.6;22.4
57798;PMS7003;43626;53.866;30.298;2022-10-22T19:24:29;41.4;32;19.8
57798;PMS7003;43626;53.866;30.298;2022-10-22T19:29:02;44;35.4;23.2
57798;PMS7003;43626;53.866;30.298;2022-10-22T19:34:09;46.8;36.4;21.6
57798;PMS7003;43626;53.866;30.298;2022-10-22T19:38:46;41.4;35;21.4
57798;PMS7003;43626;53.866;30.298;2022-10-22T19:43:47;40.8;34.3;22.3
57798;PMS7003;43626;53.866;30.298;2022-10-22T19:49:11;44;36;23
57798;PMS7003;43626;53.866;30.298;2022-10-22T19:54:02;46.6;38;22.8
57798;PMS7003;43626;53.866;30.298;2022-10-22T19:59:13;46.8;37.6;22.2
57798;PMS7003;43626;53.866;30.298;2022-10-22T20:04:31;44;34.8;21
57798;PMS7003;43626;53.866;30.298;2022-10-22T20:09:29;45.6;36.2;22.2
57798;PMS7003;43626;53.866;30.298;2022-10-22T20:13:45;49.2;37.6;23.2
57798;PMS7003;43626;53.866;30.298;2022-10-22T20:19:29;43.6;35.4;22.2
57798;PMS7003;43626;53.866;30.298;2022-10-22T20:24:31;40;33;21.2
57798;PMS7003;43626;53.866;30.298;2022-10-22T20:28:57;39.4;31.6;19
57798;PMS7003;43626;53.866;30.298;2022-10-22T20:33:45;41.8;35;21.6
57798;PMS7003;43626;53.866;30.298;2022-10-22T20:38:57;38.8;33.4;21.2
57798;PMS7003;43626;53.866;30.298;2022-10-22T20:44:27;42;34;21.5
57798;PMS7003;43626;53.866;30.298;2022-10-22T20:49:20;42.8;35.8;22.2
57798;PMS7003;43626;53.866;30.298;2022-10-22T20:54:19;43.8;37.6;23
57798;PMS7003;43626;53.866;30.298;2022-10-22T20:59:19;43.6;35;21.6
57798;PMS7003;43626;53.866;30.298;2022-10-22T21:04:18;48;38;23.4
57798;PMS7003;43626;53.866;30.298;2022-10-22T21:08:45;43.8;35.8;22.2
57798;PMS7003;43626;53.866;30.298;2022-10-22T21:14:23;41.6;33.6;20.2
57798;PMS7003;43626;53.866;30.298;2022-10-22T21:18:51;44.2;36;21.4
57798;PMS7003;43626;53.866;30.298;2022-10-22T21:23:59;45.2;36.4;22.4
57798;PMS7003;43626;53.866;30.298;2022-10-22T21:29:10;44.2;35.6;22.8
57798;PMS7003;43626;53.866;30.298;2022-10-22T21:34:31;43.8;35.2;22
57798;PMS7003;43626;53.866;30.298;2022-10-22T21:39:31;42;35;22.6
57798;PMS7003;43626;53.866;30.298;2022-10-22T21:44:05;41.5;33.8;20.8
57798;PMS7003;43626;53.866;30.298;2022-10-22T21:49:07;44.4;35.6;23.2
57798;PMS7003;43626;53.866;30.298;2022-10-22T21:54:13;43.8;37.2;23
57798;PMS7003;43626;53.866;30.298;2022-10-22T21:59:33;46.8;36.4;22.2
57798;PMS7003;43626;53.866;30.298;2022-10-22T22:04:07;45;34;20.6
57798;PMS7003;43626;53.866;30.298;2022-10-22T22:08:45;43;35.8;22.4
57798;PMS7003;43626;53.866;30.298;2022-10-22T22:13:45;42.4;35.6;23.2
57798;PMS7003;43626;53.866;30.298;2022-10-22T22:18:45;48;38;23.6
57798;PMS7003;43626;53.866;30.298;2022-10-22T22:24:11;41.8;33.4;20.6
57798;PMS7003;43626;53.866;30.298;2022-10-22T22:29:23;39.4;34.4;22.6
57798;PMS7003;43626;53.866;30.298;2022-10-22T22:34:17;40.2;33.6;21.2
57798;PMS7003;43626;53.866;30.298;2022-10-22T22:39:32;39;32;20.6
57798;PMS7003;43626;53.866;30.298;2022-10-22T22:44:05;45;36;22.3
57798;PMS7003;43626;53.866;30.298;2022-10-22T22:49:29;41.4;33;20.4
57798;PMS7003;43626;53.866;30.298;2022-10-22T22:54:29;41.2;33.4;21.6
57798;PMS7003;43626;53.866;30.298;2022-10-22T22:58:45;43.8;35.8;23.2
57798;PMS7003;43626;53.866;30.298;2022-10-22T23:04:02;47.8;38.4;22.8
57798;PMS7003;43626;53.866;30.298;2022-10-22T23:08:47;48.8;37.8;22.8
57798;PMS7003;43626;53.866;30.298;2022-10-22T23:14:19;47.4;36.6;23
57798;PMS7003;43626;53.866;30.298;2022-10-22T23:19:09;45.4;36.4;23.4
57798;PMS7003;43626;53.866;30.298;2022-10-22T23:24:11;44.6;35;21.8
57798;PMS7003;43626;53.866;30.298;2022-10-22T23:29:00;52.4;39.6;25
57798;PMS7003;43626;53.866;30.298;2022-10-22T23:34:14;46.4;37.4;23.4
57798;PMS7003;43626;53.866;30.298;2022-10-22T23:38:51;45.6;37.4;24
57798;PMS7003;43626;53.866;30.298;2022-10-22T23:44:18;48.2;36.8;23.4
57798;PMS7003;43626;53.866;30.298;2022-10-22T23:48:43;48.3;38.8;24.3
57798;PMS7003;43626;53.866;30.298;2022-10-22T23:53:58;45.8;36.2;23.2
57798;PMS7003;43626;53.866;30.298;2022-10-22T23:58:57;44.8;37.6;24.2
